QLK4D YSSY-YSTW
Flight info
| Callsign | QLK4D |
|---|---|
| Flight time | 0h 46m |
| Altitude | 22000 |
| Route | V140 DCT TW |
| Aircraft | DH8D/M-SDE2E3FGRY/H |
Departure
| Time | 2026-04-20 12:05 |
|---|---|
| Airport | Sydney Kingsford Smith International Airport (YSSY) |
Arrival
| Time | 2026-04-20 12:52 |
|---|---|
| Airport | Tamworth Airport (YSTW) |
| Time | Latitude | Longitude | Altitude | Speed | Heading |
|---|---|---|---|---|---|
| 2026-04-20 11:37 | -33.93082 | 151.18234 | 30 ft | 0 kts | 135° |
| 2026-04-20 11:50 | -33.93073 | 151.18224 | 30 ft | 2 kts | 135° |
| 2026-04-20 11:50 | -33.93063 | 151.18211 | 30 ft | 2 kts | 135° |
| 2026-04-20 11:50 | -33.93051 | 151.18199 | 30 ft | 2 kts | 135° |
| 2026-04-20 11:51 | -33.93040 | 151.18188 | 30 ft | 2 kts | 162° |
| 2026-04-20 11:51 | -33.93029 | 151.18187 | 30 ft | 1 kts | 191° |
| 2026-04-20 11:51 | -33.93028 | 151.18187 | 30 ft | 0 kts | 191° |
| 2026-04-20 11:54 | -33.93039 | 151.18185 | 30 ft | 3 kts | 192° |
| 2026-04-20 11:54 | -33.93068 | 151.18179 | 30 ft | 5 kts | 195° |
| 2026-04-20 11:54 | -33.93105 | 151.18118 | 30 ft | 13 kts | 258° |
| 2026-04-20 11:54 | -33.93095 | 151.18015 | 30 ft | 11 kts | 279° |
| 2026-04-20 11:55 | -33.93082 | 151.17931 | 30 ft | 9 kts | 279° |
| 2026-04-20 11:55 | -33.93072 | 151.17859 | 30 ft | 8 kts | 279° |
| 2026-04-20 11:55 | -33.93063 | 151.17798 | 30 ft | 6 kts | 279° |
| 2026-04-20 11:55 | -33.93033 | 151.17702 | 30 ft | 15 kts | 299° |
| 2026-04-20 11:56 | -33.93014 | 151.17633 | 30 ft | 3 kts | 282° |
| 2026-04-20 11:56 | -33.93005 | 151.17577 | 30 ft | 9 kts | 265° |
| 2026-04-20 11:56 | -33.93076 | 151.17525 | 30 ft | 12 kts | 198° |
| 2026-04-20 11:56 | -33.93180 | 151.17540 | 30 ft | 15 kts | 168° |
| 2026-04-20 11:57 | -33.93272 | 151.17564 | 30 ft | 7 kts | 168° |
| 2026-04-20 11:57 | -33.93303 | 151.17572 | 30 ft | 2 kts | 168° |
| 2026-04-20 11:57 | -33.93305 | 151.17574 | 30 ft | 0 kts | 168° |
| 2026-04-20 11:59 | -33.93373 | 151.17589 | 30 ft | 18 kts | 169° |
| 2026-04-20 11:59 | -33.93465 | 151.17584 | 30 ft | 10 kts | 182° |
| 2026-04-20 11:59 | -33.93536 | 151.17600 | 30 ft | 15 kts | 168° |
| 2026-04-20 11:59 | -33.93637 | 151.17630 | 30 ft | 11 kts | 152° |
| 2026-04-20 12:00 | -33.93741 | 151.17686 | 30 ft | 18 kts | 169° |
| 2026-04-20 12:00 | -33.93840 | 151.17722 | 30 ft | 9 kts | 121° |
| 2026-04-20 12:00 | -33.93933 | 151.17789 | 30 ft | 19 kts | 167° |
| 2026-04-20 12:00 | -33.94054 | 151.17821 | 30 ft | 17 kts | 168° |
| 2026-04-20 12:01 | -33.94180 | 151.17853 | 30 ft | 16 kts | 167° |
| 2026-04-20 12:01 | -33.94283 | 151.17879 | 30 ft | 20 kts | 168° |
| 2026-04-20 12:01 | -33.94429 | 151.17914 | 30 ft | 18 kts | 182° |
| 2026-04-20 12:01 | -33.94485 | 151.17888 | 30 ft | 5 kts | 208° |
| 2026-04-20 12:02 | -33.94582 | 151.17899 | 30 ft | 20 kts | 166° |
| 2026-04-20 12:02 | -33.94699 | 151.17929 | 30 ft | 14 kts | 167° |
| 2026-04-20 12:02 | -33.94803 | 151.17955 | 30 ft | 16 kts | 167° |
| 2026-04-20 12:02 | -33.94934 | 151.17989 | 30 ft | 22 kts | 168° |
| 2026-04-20 12:03 | -33.95067 | 151.18025 | 30 ft | 16 kts | 161° |
| 2026-04-20 12:03 | -33.95095 | 151.18129 | 30 ft | 13 kts | 79° |
| 2026-04-20 12:03 | -33.95070 | 151.18271 | 30 ft | 18 kts | 78° |
| 2026-04-20 12:03 | -33.95044 | 151.18414 | 30 ft | 15 kts | 78° |
| 2026-04-20 12:04 | -33.95021 | 151.18544 | 30 ft | 15 kts | 78° |
| 2026-04-20 12:04 | -33.94998 | 151.18669 | 30 ft | 15 kts | 77° |
| 2026-04-20 12:04 | -33.94981 | 151.18767 | 30 ft | 10 kts | 80° |
| 2026-04-20 12:04 | -33.95029 | 151.18846 | 30 ft | 16 kts | 165° |
| 2026-04-20 12:05 | -33.95412 | 151.18948 | 30 ft | 96 kts | 167° |
| 2026-04-20 12:05 | -33.96271 | 151.19174 | 39 ft | 148 kts | 169° |
| 2026-04-20 12:05 | -33.97284 | 151.19440 | 505 ft | 149 kts | 169° |
| 2026-04-20 12:05 | -33.98222 | 151.19890 | 1183 ft | 148 kts | 142° |
| 2026-04-20 12:06 | -33.98914 | 151.20839 | 1691 ft | 158 kts | 130° |
| 2026-04-20 12:06 | -33.99554 | 151.21979 | 2165 ft | 170 kts | 124° |
| 2026-04-20 12:06 | -34.00176 | 151.23257 | 2608 ft | 182 kts | 123° |
| 2026-04-20 12:06 | -34.00892 | 151.24628 | 2847 ft | 203 kts | 131° |
| 2026-04-20 12:07 | -34.01955 | 151.25838 | 2940 ft | 207 kts | 142° |
| 2026-04-20 12:07 | -34.03078 | 151.26915 | 2959 ft | 204 kts | 143° |
| 2026-04-20 12:07 | -34.04173 | 151.27956 | 2966 ft | 201 kts | 143° |
| 2026-04-20 12:07 | -34.05268 | 151.28999 | 2968 ft | 199 kts | 143° |
| 2026-04-20 12:08 | -34.06352 | 151.30048 | 2965 ft | 197 kts | 143° |
| 2026-04-20 12:08 | -34.07411 | 151.31065 | 2967 ft | 195 kts | 143° |
| 2026-04-20 12:08 | -34.08371 | 151.32228 | 2964 ft | 205 kts | 121° |
| 2026-04-20 12:08 | -34.08478 | 151.33975 | 3371 ft | 222 kts | 76° |
| 2026-04-20 12:09 | -34.07489 | 151.35440 | 3916 ft | 234 kts | 38° |
| 2026-04-20 12:09 | -34.06062 | 151.36426 | 4395 ft | 239 kts | 32° |
| 2026-04-20 12:09 | -34.04588 | 151.37358 | 4848 ft | 243 kts | 31° |
| 2026-04-20 12:09 | -34.03060 | 151.38297 | 5300 ft | 248 kts | 31° |
| 2026-04-20 12:10 | -34.01497 | 151.39238 | 5755 ft | 253 kts | 30° |
| 2026-04-20 12:10 | -33.99929 | 151.40173 | 6197 ft | 257 kts | 30° |
| 2026-04-20 12:10 | -33.98307 | 151.41130 | 6653 ft | 261 kts | 30° |
| 2026-04-20 12:10 | -33.96656 | 151.42101 | 7110 ft | 265 kts | 30° |
| 2026-04-20 12:11 | -33.95002 | 151.43066 | 7555 ft | 268 kts | 30° |
| 2026-04-20 12:11 | -33.93309 | 151.44054 | 8004 ft | 271 kts | 30° |
| 2026-04-20 12:11 | -33.91611 | 151.45042 | 8454 ft | 274 kts | 30° |
| 2026-04-20 12:11 | -33.89887 | 151.46042 | 8907 ft | 276 kts | 30° |
| 2026-04-20 12:12 | -33.88139 | 151.47055 | 9350 ft | 278 kts | 30° |
| 2026-04-20 12:12 | -33.86395 | 151.48064 | 9799 ft | 280 kts | 30° |
| 2026-04-20 12:12 | -33.84640 | 151.49081 | 10265 ft | 283 kts | 30° |
| 2026-04-20 12:12 | -33.82859 | 151.50114 | 10700 ft | 285 kts | 30° |
| 2026-04-20 12:13 | -33.81053 | 151.51160 | 11126 ft | 287 kts | 29° |
| 2026-04-20 12:13 | -33.79248 | 151.52202 | 11571 ft | 289 kts | 29° |
| 2026-04-20 12:13 | -33.77446 | 151.53241 | 12001 ft | 290 kts | 29° |
| 2026-04-20 12:13 | -33.75629 | 151.54289 | 12453 ft | 290 kts | 29° |
| 2026-04-20 12:14 | -33.73813 | 151.55336 | 12900 ft | 291 kts | 29° |
| 2026-04-20 12:14 | -33.71969 | 151.56400 | 13351 ft | 291 kts | 29° |
| 2026-04-20 12:14 | -33.70166 | 151.57436 | 13777 ft | 291 kts | 29° |
| 2026-04-20 12:14 | -33.68345 | 151.58482 | 14186 ft | 291 kts | 29° |
| 2026-04-20 12:15 | -33.66508 | 151.59538 | 14614 ft | 290 kts | 29° |
| 2026-04-20 12:15 | -33.64666 | 151.60538 | 15041 ft | 290 kts | 23° |
| 2026-04-20 12:15 | -33.62726 | 151.61209 | 15438 ft | 290 kts | 17° |
| 2026-04-20 12:15 | -33.60798 | 151.61784 | 15831 ft | 288 kts | 17° |
| 2026-04-20 12:16 | -33.58860 | 151.62363 | 16250 ft | 286 kts | 17° |
| 2026-04-20 12:16 | -33.56934 | 151.62939 | 16667 ft | 283 kts | 17° |
| 2026-04-20 12:16 | -33.55037 | 151.63509 | 17071 ft | 280 kts | 17° |
| 2026-04-20 12:16 | -33.53162 | 151.64073 | 17484 ft | 276 kts | 17° |
| 2026-04-20 12:17 | -33.51321 | 151.64629 | 17879 ft | 272 kts | 17° |
| 2026-04-20 12:17 | -33.49488 | 151.65183 | 18287 ft | 267 kts | 17° |
| 2026-04-20 12:17 | -33.47728 | 151.65715 | 18701 ft | 261 kts | 17° |
| 2026-04-20 12:17 | -33.45985 | 151.66242 | 19112 ft | 254 kts | 17° |
| 2026-04-20 12:18 | -33.44284 | 151.66705 | 19498 ft | 247 kts | 7° |
| 2026-04-20 12:18 | -33.42623 | 151.66595 | 19881 ft | 236 kts | 351° |
| 2026-04-20 12:18 | -33.41009 | 151.66267 | 20245 ft | 235 kts | 346° |
| 2026-04-20 12:18 | -33.39417 | 151.65922 | 20493 ft | 232 kts | 351° |
| 2026-04-20 12:19 | -33.37761 | 151.65607 | 20775 ft | 245 kts | 351° |
| 2026-04-20 12:19 | -33.36051 | 151.65269 | 21054 ft | 258 kts | 350° |
| 2026-04-20 12:19 | -33.34228 | 151.64903 | 21343 ft | 272 kts | 350° |
| 2026-04-20 12:19 | -33.32315 | 151.64519 | 21622 ft | 287 kts | 350° |
| 2026-04-20 12:20 | -33.30278 | 151.64107 | 21878 ft | 303 kts | 350° |
| 2026-04-20 12:20 | -33.28171 | 151.63678 | 21945 ft | 313 kts | 349° |
| 2026-04-20 12:20 | -33.25986 | 151.63232 | 21966 ft | 320 kts | 349° |
| 2026-04-20 12:20 | -33.23779 | 151.62784 | 21968 ft | 326 kts | 349° |
| 2026-04-20 12:21 | -33.21512 | 151.62328 | 21970 ft | 332 kts | 349° |
| 2026-04-20 12:21 | -33.19212 | 151.61864 | 21968 ft | 338 kts | 349° |
| 2026-04-20 12:21 | -33.16881 | 151.61397 | 21966 ft | 344 kts | 350° |
| 2026-04-20 12:21 | -33.14478 | 151.60916 | 21967 ft | 348 kts | 350° |
| 2026-04-20 12:22 | -33.12103 | 151.60442 | 21969 ft | 352 kts | 350° |
| 2026-04-20 12:22 | -33.09654 | 151.59953 | 21968 ft | 356 kts | 350° |
| 2026-04-20 12:22 | -33.07184 | 151.59462 | 21968 ft | 359 kts | 350° |
| 2026-04-20 12:22 | -33.04727 | 151.58974 | 21973 ft | 361 kts | 350° |
| 2026-04-20 12:23 | -33.02245 | 151.58479 | 21968 ft | 363 kts | 350° |
| 2026-04-20 12:23 | -32.99729 | 151.57980 | 21967 ft | 365 kts | 350° |
| 2026-04-20 12:23 | -32.97220 | 151.57483 | 21970 ft | 366 kts | 350° |
| 2026-04-20 12:23 | -32.94710 | 151.56985 | 21972 ft | 368 kts | 350° |
| 2026-04-20 12:24 | -32.92184 | 151.56486 | 21975 ft | 369 kts | 350° |
| 2026-04-20 12:24 | -32.89643 | 151.55983 | 21967 ft | 370 kts | 349° |
| 2026-04-20 12:24 | -32.87091 | 151.55478 | 21969 ft | 371 kts | 349° |
| 2026-04-20 12:24 | -32.84524 | 151.54970 | 21965 ft | 371 kts | 349° |
| 2026-04-20 12:25 | -32.82002 | 151.54471 | 21972 ft | 371 kts | 349° |
| 2026-04-20 12:25 | -32.79435 | 151.53964 | 21966 ft | 372 kts | 349° |
| 2026-04-20 12:25 | -32.76884 | 151.53461 | 21966 ft | 371 kts | 349° |
| 2026-04-20 12:25 | -32.74355 | 151.52754 | 21969 ft | 370 kts | 341° |
| 2026-04-20 12:26 | -32.71952 | 151.51752 | 21963 ft | 371 kts | 338° |
| 2026-04-20 12:26 | -32.69521 | 151.50709 | 21966 ft | 371 kts | 338° |
| 2026-04-20 12:26 | -32.67069 | 151.49658 | 21965 ft | 371 kts | 338° |
| 2026-04-20 12:26 | -32.64643 | 151.48624 | 21970 ft | 371 kts | 338° |
| 2026-04-20 12:27 | -32.62205 | 151.47584 | 21968 ft | 371 kts | 338° |
| 2026-04-20 12:27 | -32.59790 | 151.46559 | 21969 ft | 371 kts | 338° |
| 2026-04-20 12:27 | -32.57369 | 151.45534 | 21969 ft | 371 kts | 338° |
| 2026-04-20 12:27 | -32.54929 | 151.44502 | 21964 ft | 371 kts | 338° |
| 2026-04-20 12:28 | -32.52483 | 151.43468 | 21962 ft | 371 kts | 338° |
| 2026-04-20 12:28 | -32.50058 | 151.42445 | 21965 ft | 371 kts | 338° |
| 2026-04-20 12:28 | -32.47630 | 151.41422 | 21963 ft | 371 kts | 338° |
| 2026-04-20 12:28 | -32.45169 | 151.40385 | 21958 ft | 371 kts | 338° |
| 2026-04-20 12:29 | -32.42730 | 151.39360 | 21960 ft | 371 kts | 338° |
| 2026-04-20 12:29 | -32.40295 | 151.38336 | 21962 ft | 371 kts | 338° |
| 2026-04-20 12:29 | -32.37873 | 151.37318 | 21969 ft | 370 kts | 338° |
| 2026-04-20 12:29 | -32.35454 | 151.36301 | 21967 ft | 371 kts | 338° |
| 2026-04-20 12:30 | -32.33010 | 151.35275 | 21965 ft | 371 kts | 338° |
| 2026-04-20 12:30 | -32.30582 | 151.34258 | 21966 ft | 370 kts | 339° |
| 2026-04-20 12:30 | -32.28138 | 151.33234 | 21975 ft | 370 kts | 339° |
| 2026-04-20 12:30 | -32.25693 | 151.32210 | 21979 ft | 370 kts | 339° |
| 2026-04-20 12:31 | -32.23264 | 151.31192 | 21978 ft | 371 kts | 339° |
| 2026-04-20 12:31 | -32.20833 | 151.30174 | 21978 ft | 371 kts | 339° |
| 2026-04-20 12:31 | -32.18399 | 151.29158 | 21982 ft | 371 kts | 339° |
| 2026-04-20 12:31 | -32.15983 | 151.28146 | 21982 ft | 371 kts | 339° |
| 2026-04-20 12:32 | -32.13517 | 151.27118 | 21982 ft | 371 kts | 339° |
| 2026-04-20 12:32 | -32.11078 | 151.26099 | 21976 ft | 371 kts | 339° |
| 2026-04-20 12:32 | -32.08665 | 151.25092 | 21973 ft | 371 kts | 339° |
| 2026-04-20 12:32 | -32.06233 | 151.24077 | 21979 ft | 370 kts | 339° |
| 2026-04-20 12:33 | -32.03805 | 151.23065 | 21979 ft | 370 kts | 339° |
| 2026-04-20 12:33 | -32.01364 | 151.22044 | 21974 ft | 370 kts | 338° |
| 2026-04-20 12:33 | -31.99013 | 151.20811 | 21984 ft | 365 kts | 330° |
| 2026-04-20 12:33 | -31.96784 | 151.19447 | 21978 ft | 359 kts | 330° |
| 2026-04-20 12:34 | -31.94591 | 151.18095 | 21973 ft | 354 kts | 330° |
| 2026-04-20 12:34 | -31.92402 | 151.16748 | 21974 ft | 349 kts | 330° |
| 2026-04-20 12:34 | -31.90261 | 151.15433 | 21975 ft | 346 kts | 330° |
| 2026-04-20 12:34 | -31.88136 | 151.14130 | 21976 ft | 342 kts | 329° |
| 2026-04-20 12:35 | -31.86010 | 151.12828 | 21980 ft | 341 kts | 330° |
| 2026-04-20 12:35 | -31.83894 | 151.11537 | 21985 ft | 345 kts | 329° |
| 2026-04-20 12:35 | -31.81760 | 151.10234 | 21987 ft | 349 kts | 329° |
| 2026-04-20 12:35 | -31.79593 | 151.08914 | 21967 ft | 353 kts | 329° |
| 2026-04-20 12:36 | -31.77385 | 151.07568 | 21613 ft | 354 kts | 330° |
| 2026-04-20 12:36 | -31.75202 | 151.06238 | 21200 ft | 353 kts | 330° |
| 2026-04-20 12:36 | -31.73031 | 151.04916 | 20778 ft | 351 kts | 330° |
| 2026-04-20 12:36 | -31.70855 | 151.03592 | 20341 ft | 350 kts | 330° |
| 2026-04-20 12:37 | -31.68717 | 151.02292 | 19911 ft | 349 kts | 330° |
| 2026-04-20 12:37 | -31.66558 | 151.00980 | 19478 ft | 347 kts | 330° |
| 2026-04-20 12:37 | -31.64402 | 150.99672 | 19045 ft | 345 kts | 330° |
| 2026-04-20 12:37 | -31.62270 | 150.98379 | 18614 ft | 344 kts | 330° |
| 2026-04-20 12:38 | -31.60159 | 150.97099 | 18189 ft | 343 kts | 330° |
| 2026-04-20 12:38 | -31.58031 | 150.95811 | 17768 ft | 341 kts | 330° |
| 2026-04-20 12:38 | -31.55916 | 150.94533 | 17343 ft | 339 kts | 330° |
| 2026-04-20 12:38 | -31.53809 | 150.93257 | 16918 ft | 338 kts | 330° |
| 2026-04-20 12:39 | -31.49662 | 150.90750 | 16089 ft | 335 kts | 330° |
| 2026-04-20 12:39 | -31.47593 | 150.89500 | 15680 ft | 334 kts | 331° |
| 2026-04-20 12:39 | -31.45525 | 150.88252 | 15264 ft | 332 kts | 331° |
| 2026-04-20 12:40 | -31.43476 | 150.87016 | 14848 ft | 330 kts | 331° |
| 2026-04-20 12:40 | -31.41430 | 150.85783 | 14445 ft | 329 kts | 331° |
| 2026-04-20 12:40 | -31.39403 | 150.84560 | 14036 ft | 327 kts | 331° |
| 2026-04-20 12:40 | -31.37383 | 150.83342 | 13624 ft | 325 kts | 331° |
| 2026-04-20 12:41 | -31.35388 | 150.82141 | 13230 ft | 324 kts | 331° |
| 2026-04-20 12:41 | -31.33402 | 150.80945 | 12832 ft | 321 kts | 331° |
| 2026-04-20 12:41 | -31.31407 | 150.79744 | 12432 ft | 319 kts | 331° |
| 2026-04-20 12:41 | -31.29455 | 150.78571 | 12049 ft | 316 kts | 332° |
| 2026-04-20 12:42 | -31.27496 | 150.77394 | 11659 ft | 314 kts | 332° |
| 2026-04-20 12:42 | -31.25572 | 150.76239 | 11261 ft | 312 kts | 332° |
| 2026-04-20 12:42 | -31.23644 | 150.75081 | 10883 ft | 309 kts | 332° |
| 2026-04-20 12:42 | -31.21730 | 150.73932 | 10502 ft | 307 kts | 332° |
| 2026-04-20 12:43 | -31.19857 | 150.72809 | 10123 ft | 305 kts | 332° |
| 2026-04-20 12:43 | -31.17969 | 150.71675 | 9742 ft | 303 kts | 332° |
| 2026-04-20 12:43 | -31.16093 | 150.70550 | 9379 ft | 301 kts | 332° |
| 2026-04-20 12:43 | -31.14228 | 150.69434 | 9010 ft | 300 kts | 332° |
| 2026-04-20 12:44 | -31.12374 | 150.68324 | 8632 ft | 299 kts | 332° |
| 2026-04-20 12:44 | -31.10524 | 150.67215 | 8253 ft | 297 kts | 332° |
| 2026-04-20 12:44 | -31.08691 | 150.66119 | 7890 ft | 295 kts | 333° |
| 2026-04-20 12:44 | -31.06902 | 150.65044 | 7537 ft | 284 kts | 332° |
| 2026-04-20 12:45 | -31.05166 | 150.64000 | 7190 ft | 274 kts | 333° |
| 2026-04-20 12:45 | -31.03507 | 150.63005 | 6846 ft | 265 kts | 333° |
| 2026-04-20 12:45 | -31.01895 | 150.62074 | 6434 ft | 259 kts | 338° |
| 2026-04-20 12:45 | -31.00135 | 150.61852 | 5822 ft | 250 kts | 17° |
| 2026-04-20 12:46 | -30.98796 | 150.62799 | 5562 ft | 207 kts | 54° |
| 2026-04-20 12:46 | -30.98047 | 150.64067 | 5373 ft | 179 kts | 62° |
| 2026-04-20 12:46 | -30.97407 | 150.65269 | 5176 ft | 171 kts | 64° |
| 2026-04-20 12:46 | -30.96810 | 150.66458 | 4980 ft | 170 kts | 65° |
| 2026-04-20 12:47 | -30.96231 | 150.67651 | 4815 ft | 172 kts | 66° |
| 2026-04-20 12:47 | -30.95851 | 150.68971 | 4505 ft | 176 kts | 94° |
| 2026-04-20 12:47 | -30.96350 | 150.70227 | 4295 ft | 175 kts | 128° |
| 2026-04-20 12:47 | -30.97174 | 150.71297 | 4047 ft | 177 kts | 131° |
| 2026-04-20 12:48 | -30.97994 | 150.72321 | 3805 ft | 170 kts | 131° |
| 2026-04-20 12:48 | -30.98797 | 150.73311 | 3582 ft | 167 kts | 131° |
| 2026-04-20 12:48 | -30.99600 | 150.74304 | 3357 ft | 165 kts | 131° |
| 2026-04-20 12:48 | -31.00363 | 150.75249 | 3140 ft | 157 kts | 130° |
| 2026-04-20 12:49 | -31.01088 | 150.76149 | 2933 ft | 145 kts | 131° |
| 2026-04-20 12:49 | -31.01777 | 150.76999 | 2763 ft | 146 kts | 131° |
| 2026-04-20 12:49 | -31.02480 | 150.77884 | 2565 ft | 146 kts | 131° |
| 2026-04-20 12:49 | -31.03119 | 150.78693 | 2356 ft | 127 kts | 131° |
| 2026-04-20 12:50 | -31.03703 | 150.79422 | 2198 ft | 120 kts | 133° |
| 2026-04-20 12:50 | -31.04272 | 150.80124 | 2033 ft | 119 kts | 132° |
| 2026-04-20 12:50 | -31.04841 | 150.80835 | 1869 ft | 119 kts | 133° |
| 2026-04-20 12:50 | -31.05415 | 150.81560 | 1705 ft | 122 kts | 133° |
| 2026-04-20 12:51 | -31.05998 | 150.82306 | 1600 ft | 123 kts | 133° |
| 2026-04-20 12:51 | -31.06588 | 150.83044 | 1469 ft | 127 kts | 133° |
| 2026-04-20 12:51 | -31.07195 | 150.83806 | 1330 ft | 130 kts | 133° |
| 2026-04-20 12:51 | -31.07800 | 150.84566 | 1310 ft | 115 kts | 133° |
| 2026-04-20 12:52 | -31.08148 | 150.85002 | 1328 ft | 47 kts | 133° |
| 2026-04-20 12:52 | -31.08292 | 150.85182 | 1337 ft | 22 kts | 133° |
| 2026-04-20 12:52 | -31.08377 | 150.85290 | 1338 ft | 14 kts | 134° |
| 2026-04-20 12:52 | -31.08437 | 150.85345 | 1339 ft | 7 kts | 175° |
| 2026-04-20 12:53 | -31.08483 | 150.85313 | 1342 ft | 12 kts | 221° |
| 2026-04-20 12:53 | -31.08517 | 150.85191 | 1345 ft | 17 kts | 292° |
| 2026-04-20 12:53 | -31.08506 | 150.85107 | 1345 ft | 11 kts | 286° |
| 2026-04-20 12:53 | -31.08450 | 150.85028 | 1343 ft | 10 kts | 311° |
| 2026-04-20 12:54 | -31.08438 | 150.84964 | 1342 ft | 7 kts | 274° |
| 2026-04-20 12:54 | -31.08437 | 150.84941 | 1341 ft | 0 kts | 273° |